createdAt,value
2017-11-25T00:00:53.835Z,935.08
2017-11-25T00:02:06.089Z,935.1
2017-11-25T00:03:18.750Z,935.13
2017-11-25T00:04:31.458Z,935.13
2017-11-25T00:05:44.182Z,935.16
2017-11-25T00:07:13.136Z,935.15
2017-11-25T00:08:25.905Z,935.2
2017-11-25T00:09:38.612Z,935.25
2017-11-25T00:10:50.838Z,935.25
2017-11-25T00:12:02.618Z,935.2
2017-11-25T00:13:15.262Z,935.19
2017-11-25T00:14:27.985Z,935.23
2017-11-25T00:15:40.678Z,935.28
2017-11-25T00:16:53.329Z,935.29
2017-11-25T00:18:06.068Z,935.31
2017-11-25T00:19:18.799Z,935.34
2017-11-25T00:20:31.526Z,935.32
2017-11-25T00:21:44.218Z,935.35
2017-11-25T00:22:56.971Z,935.34
2017-11-25T00:24:09.611Z,935.39
2017-11-25T00:25:22.304Z,935.41
2017-11-25T00:26:35.043Z,935.46
2017-11-25T00:27:47.772Z,935.45
2017-11-25T00:29:00.437Z,935.43
2017-11-25T00:30:13.109Z,935.44
2017-11-25T00:31:25.345Z,935.43
2017-11-25T00:32:38.078Z,935.39
2017-11-25T00:33:50.720Z,935.43
2017-11-25T00:35:03.461Z,935.43
2017-11-25T00:36:15.295Z,935.41
2017-11-25T00:37:27.994Z,935.38
2017-11-25T00:38:40.203Z,935.43
2017-11-25T00:39:52.462Z,935.42
2017-11-25T00:41:05.165Z,935.48
2017-11-25T00:42:17.469Z,935.52
2017-11-25T00:43:30.259Z,935.53
2017-11-25T00:44:43.000Z,935.51
2017-11-25T00:45:54.813Z,935.49
2017-11-25T00:47:07.531Z,935.48
2017-11-25T00:48:20.259Z,935.49
2017-11-25T00:49:32.517Z,935.55
2017-11-25T00:50:45.628Z,935.55
2017-11-25T00:51:58.371Z,935.53
2017-11-25T00:53:10.654Z,935.49
2017-11-25T00:54:23.344Z,935.49
2017-11-25T00:55:36.084Z,935.48
2017-11-25T00:56:48.353Z,935.5
2017-11-25T00:58:00.614Z,935.51
2017-11-25T00:59:13.315Z,935.53
2017-11-25T01:00:26.039Z,935.52
2017-11-25T01:01:38.820Z,935.56
2017-11-25T01:02:51.556Z,935.6
2017-11-25T01:04:04.235Z,935.6
2017-11-25T01:05:16.534Z,935.65
2017-11-25T01:06:29.245Z,935.64
2017-11-25T01:07:41.564Z,935.65
2017-11-25T01:08:54.235Z,935.64
2017-11-25T01:10:06.956Z,935.64
2017-11-25T01:11:19.846Z,935.6
2017-11-25T01:12:33.361Z,935.6
2017-11-25T01:13:45.610Z,935.56
2017-11-25T01:14:58.328Z,935.58
2017-11-25T01:16:11.049Z,935.56
2017-11-25T01:17:23.709Z,935.58
2017-11-25T01:18:35.969Z,935.6
2017-11-25T01:19:48.668Z,935.63
2017-11-25T01:21:01.394Z,935.66
2017-11-25T01:22:13.751Z,935.63
2017-11-25T01:23:26.439Z,935.67
2017-11-25T01:24:39.146Z,935.68
2017-11-25T01:25:51.851Z,935.68
2017-11-25T01:27:04.606Z,935.63
2017-11-25T01:28:17.375Z,935.66
2017-11-25T01:29:30.087Z,935.64
2017-11-25T01:30:42.829Z,935.67
2017-11-25T01:31:55.574Z,935.63
2017-11-25T01:33:09.355Z,935.6
2017-11-25T01:34:21.684Z,935.64
2017-11-25T01:35:34.479Z,935.63
2017-11-25T01:36:46.780Z,935.63
2017-11-25T01:37:58.561Z,935.68
2017-11-25T01:39:11.272Z,935.64
2017-11-25T01:40:23.528Z,935.6
2017-11-25T01:41:36.209Z,935.59
2017-11-25T01:42:48.983Z,935.58
2017-11-25T01:44:01.757Z,935.58
2017-11-25T01:45:14.465Z,935.61
2017-11-25T01:46:27.254Z,935.66
2017-11-25T01:47:39.976Z,935.66
2017-11-25T01:48:52.720Z,935.7
2017-11-25T01:50:05.383Z,935.67
2017-11-25T01:51:18.080Z,935.66
2017-11-25T01:52:30.746Z,935.62
2017-11-25T01:53:43.409Z,935.63
2017-11-25T01:55:00.029Z,935.57
2017-11-25T01:56:12.692Z,935.57
2017-11-25T01:57:25.393Z,935.57
2017-11-25T01:58:38.056Z,935.55
2017-11-25T01:59:50.713Z,935.56
2017-11-25T02:01:02.928Z,935.54
2017-11-25T02:02:15.570Z,935.53
2017-11-25T02:03:28.243Z,935.53
2017-11-25T02:04:40.919Z,935.53
2017-11-25T02:05:56.923Z,935.49
2017-11-25T02:07:09.141Z,935.54
2017-11-25T02:08:21.793Z,935.46
2017-11-25T02:09:34.461Z,935.46
2017-11-25T02:10:47.118Z,935.46
2017-11-25T02:11:59.794Z,935.42
2017-11-25T02:13:12.016Z,935.46
2017-11-25T02:14:24.671Z,935.44
2017-11-25T02:15:37.342Z,935.41
2017-11-25T02:16:53.210Z,935.37
2017-11-25T02:18:05.869Z,935.33
2017-11-25T02:19:18.513Z,935.27
2017-11-25T02:20:31.170Z,935.29
2017-11-25T02:21:43.832Z,935.28
2017-11-25T02:22:56.049Z,935.27
2017-11-25T02:24:08.703Z,935.26
2017-11-25T02:25:20.908Z,935.26
2017-11-25T02:26:33.806Z,935.25
2017-11-25T02:27:47.544Z,935.2
2017-11-25T02:29:00.223Z,935.19
2017-11-25T02:30:12.896Z,935.18
2017-11-25T02:31:25.559Z,935.16
2017-11-25T02:32:38.228Z,935.14
2017-11-25T02:33:50.450Z,935.11
2017-11-25T02:35:02.673Z,935.12
2017-11-25T02:36:15.328Z,935.05
2017-11-25T02:37:28.048Z,935.06
2017-11-25T02:38:40.843Z,935.06
2017-11-25T02:39:53.057Z,935.04
2017-11-25T02:41:05.734Z,935.09
2017-11-25T02:42:18.372Z,935.08
2017-11-25T02:43:30.150Z,935.08
2017-11-25T02:44:42.804Z,935.11
2017-11-25T02:45:55.471Z,935.06
2017-11-25T02:47:08.148Z,935.01
2017-11-25T02:48:20.370Z,935.02
2017-11-25T02:49:33.363Z,935.01
2017-11-25T02:50:45.992Z,935.01
2017-11-25T02:51:58.221Z,935.05
2017-11-25T02:53:10.880Z,935.05
2017-11-25T02:54:23.515Z,935.06
2017-11-25T02:55:36.211Z,935.02
2017-11-25T02:56:48.446Z,935.02
2017-11-25T02:58:01.121Z,935.02
2017-11-25T02:59:13.804Z,934.98
2017-11-25T03:00:26.514Z,934.98
2017-11-25T03:01:39.164Z,934.93
2017-11-25T03:02:51.847Z,934.97
2017-11-25T03:04:04.508Z,934.96
2017-11-25T03:05:17.165Z,935
2017-11-25T03:06:29.823Z,935
2017-11-25T03:07:42.476Z,935.04
2017-11-25T03:08:55.146Z,935.02
2017-11-25T03:10:07.820Z,935.04
2017-11-25T03:11:20.675Z,935.03
2017-11-25T03:12:32.875Z,935.04
2017-11-25T03:13:45.535Z,934.94
2017-11-25T03:14:57.739Z,934.97
2017-11-25T03:16:09.932Z,934.98
2017-11-25T03:17:22.584Z,935
2017-11-25T03:18:35.240Z,934.97
2017-11-25T03:19:47.879Z,934.94
2017-11-25T03:21:00.538Z,934.91
2017-11-25T03:22:13.123Z,934.87
2017-11-25T03:23:25.306Z,934.82
2017-11-25T03:24:37.943Z,934.78
2017-11-25T03:25:50.609Z,934.72
2017-11-25T03:27:02.804Z,934.71
2017-11-25T03:28:15.461Z,934.69
2017-11-25T03:29:28.080Z,934.69
2017-11-25T03:30:40.725Z,934.64
2017-11-25T03:31:53.397Z,934.66
2017-11-25T03:33:05.630Z,934.62
2017-11-25T03:34:17.880Z,934.57
2017-11-25T03:35:30.611Z,934.59
2017-11-25T03:36:43.290Z,934.58
2017-11-25T03:37:56.006Z,934.59
2017-11-25T03:39:08.754Z,934.61
2017-11-25T03:40:21.027Z,934.59
2017-11-25T03:41:33.713Z,934.59
2017-11-25T03:42:46.387Z,934.49
2017-11-25T03:43:59.113Z,934.48
2017-11-25T03:45:11.902Z,934.51
2017-11-25T03:46:24.624Z,934.51
2017-11-25T03:47:37.368Z,934.48
2017-11-25T03:48:50.172Z,934.48
2017-11-25T03:50:02.888Z,934.44
2017-11-25T03:51:14.752Z,934.42
2017-11-25T03:52:27.491Z,934.42
2017-11-25T03:53:40.192Z,934.42
2017-11-25T03:54:52.966Z,934.42
2017-11-25T03:56:05.818Z,934.41
2017-11-25T03:57:18.534Z,934.42
2017-11-25T03:58:31.260Z,934.4
2017-11-25T03:59:43.520Z,934.38
2017-11-25T04:00:56.218Z,934.34
2017-11-25T04:02:08.947Z,934.35
2017-11-25T04:03:21.252Z,934.36
2017-11-25T04:04:34.020Z,934.31
2017-11-25T04:05:46.783Z,934.37
2017-11-25T04:06:59.091Z,934.38
2017-11-25T04:08:11.784Z,934.38
2017-11-25T04:09:24.504Z,934.35
2017-11-25T04:10:37.206Z,934.32
2017-11-25T04:11:49.997Z,934.28
2017-11-25T04:13:02.951Z,934.28
2017-11-25T04:14:17.099Z,934.23
2017-11-25T04:15:29.893Z,934.22
2017-11-25T04:16:42.681Z,934.19
2017-11-25T04:17:55.034Z,934.16
2017-11-25T04:19:07.835Z,934.14
2017-11-25T04:20:20.660Z,934.15
2017-11-25T04:21:32.975Z,934.15
2017-11-25T04:22:45.766Z,934.16
2017-11-25T04:23:58.564Z,934.16
2017-11-25T04:25:15.519Z,934.14
2017-11-25T04:26:28.288Z,934.16
2017-11-25T04:27:41.072Z,934.12
2017-11-25T04:28:53.493Z,934.15
2017-11-25T04:30:06.293Z,934.1
2017-11-25T04:31:19.089Z,934.09
2017-11-25T04:32:31.872Z,934.07
2017-11-25T04:33:44.682Z,934.11
2017-11-25T04:34:57.460Z,934.09
2017-11-25T04:36:10.234Z,934.11
2017-11-25T04:37:23.001Z,934.09
2017-11-25T04:38:35.326Z,934.12
2017-11-25T04:39:48.106Z,934.13
2017-11-25T04:41:00.900Z,934.12
2017-11-25T04:42:13.610Z,934.16
2017-11-25T04:43:25.879Z,934.1
2017-11-25T04:44:38.558Z,934.08
2017-11-25T04:45:51.276Z,934.07
2017-11-25T04:47:03.512Z,934.03
2017-11-25T04:48:16.209Z,934.03
2017-11-25T04:49:28.922Z,934.01
2017-11-25T04:50:41.726Z,934.03
2017-11-25T04:51:54.481Z,934.05
2017-11-25T04:53:07.256Z,934.01
2017-11-25T04:54:19.945Z,934.02
2017-11-25T04:55:32.206Z,934
2017-11-25T04:56:44.876Z,933.95
2017-11-25T04:57:57.602Z,933.95
2017-11-25T04:59:10.285Z,933.93
2017-11-25T05:00:22.557Z,933.94
2017-11-25T05:01:35.293Z,933.94
2017-11-25T05:02:47.958Z,933.97
2017-11-25T05:04:00.624Z,933.94
2017-11-25T05:05:13.340Z,933.97
2017-11-25T05:06:26.045Z,934.01
2017-11-25T05:07:38.733Z,933.99
2017-11-25T05:08:51.422Z,934
2017-11-25T05:10:04.131Z,934.01
2017-11-25T05:11:16.824Z,933.97
2017-11-25T05:12:29.187Z,933.95
2017-11-25T05:13:41.912Z,933.92
2017-11-25T05:14:54.579Z,933.94
2017-11-25T05:16:07.236Z,933.91
2017-11-25T05:17:19.860Z,933.9
2017-11-25T05:18:32.073Z,933.92
2017-11-25T05:19:44.742Z,933.92
2017-11-25T05:20:57.445Z,933.92
2017-11-25T05:22:10.164Z,933.92
2017-11-25T05:23:22.875Z,933.87
2017-11-25T05:24:35.606Z,933.88
2017-11-25T05:25:48.324Z,933.86
2017-11-25T05:27:01.023Z,933.86
2017-11-25T05:28:13.747Z,933.85
2017-11-25T05:29:26.429Z,933.8
2017-11-25T05:30:38.670Z,933.8
2017-11-25T05:31:51.409Z,933.82
2017-11-25T05:33:03.655Z,933.86
2017-11-25T05:34:16.417Z,933.89
2017-11-25T05:35:29.181Z,933.91
2017-11-25T05:36:41.890Z,933.93
2017-11-25T05:37:54.591Z,933.89
2017-11-25T05:39:07.300Z,933.91
2017-11-25T05:40:20.104Z,933.89
2017-11-25T05:41:32.792Z,933.89
2017-11-25T05:42:45.519Z,933.88
2017-11-25T05:43:58.194Z,933.87
2017-11-25T05:45:10.399Z,933.88
2017-11-25T05:46:23.092Z,933.84
2017-11-25T05:47:35.813Z,933.84
2017-11-25T05:48:48.040Z,933.85
2017-11-25T05:50:00.761Z,933.81
2017-11-25T05:51:13.130Z,933.81
2017-11-25T05:52:25.764Z,933.85
2017-11-25T05:53:38.427Z,933.81
2017-11-25T05:54:51.163Z,933.77
2017-11-25T05:56:03.861Z,933.81
2017-11-25T05:57:16.541Z,933.81
2017-11-25T05:58:29.227Z,933.79
2017-11-25T05:59:41.453Z,933.74
2017-11-25T06:00:53.710Z,933.78
2017-11-25T06:02:06.538Z,933.76
2017-11-25T06:03:18.786Z,933.78
2017-11-25T06:04:31.390Z,933.78
2017-11-25T06:05:44.064Z,933.79
2017-11-25T06:06:56.755Z,933.79
2017-11-25T06:08:08.964Z,933.8
2017-11-25T06:09:21.664Z,933.79
2017-11-25T06:10:33.901Z,933.83
2017-11-25T06:11:46.609Z,933.84
2017-11-25T06:12:59.265Z,933.84
2017-11-25T06:14:11.966Z,933.85
2017-11-25T06:15:24.652Z,933.85
2017-11-25T06:16:37.321Z,933.85
2017-11-25T06:17:49.051Z,933.82
2017-11-25T06:19:01.765Z,933.79
2017-11-25T06:20:13.995Z,933.76
2017-11-25T06:21:26.649Z,933.79
2017-11-25T06:22:37.998Z,933.8
2017-11-25T06:23:50.931Z,933.79
2017-11-25T06:25:03.605Z,933.79
2017-11-25T06:26:15.801Z,933.75
2017-11-25T06:27:28.501Z,933.75
2017-11-25T06:28:41.118Z,933.77
2017-11-25T06:29:53.747Z,933.82
2017-11-25T06:31:05.987Z,933.79
2017-11-25T06:32:18.230Z,933.78
2017-11-25T06:33:30.858Z,933.78
2017-11-25T06:34:44.055Z,933.84
2017-11-25T06:35:56.796Z,933.85
2017-11-25T06:37:09.116Z,933.85
2017-11-25T06:38:21.839Z,933.87
2017-11-25T06:39:34.619Z,933.85
2017-11-25T06:40:47.328Z,933.88
2017-11-25T06:42:00.065Z,933.92
2017-11-25T06:43:12.757Z,933.9
2017-11-25T06:44:25.445Z,933.89
2017-11-25T06:45:37.819Z,933.94
2017-11-25T06:46:50.038Z,933.9
2017-11-25T06:48:02.759Z,933.91
2017-11-25T06:49:14.596Z,933.96
2017-11-25T06:50:27.299Z,933.88
2017-11-25T06:51:39.551Z,933.89
2017-11-25T06:52:52.244Z,933.9
2017-11-25T06:54:04.975Z,933.92
2017-11-25T06:55:17.234Z,933.97
2017-11-25T06:56:29.924Z,933.99
2017-11-25T06:57:42.582Z,933.99
2017-11-25T06:58:55.282Z,934.01
2017-11-25T07:00:07.976Z,934.04
2017-11-25T07:01:20.339Z,934.04
2017-11-25T07:02:32.614Z,934.04
2017-11-25T07:03:44.839Z,934.03
2017-11-25T07:04:57.513Z,934.05
2017-11-25T07:06:09.841Z,933.99
2017-11-25T07:07:21.662Z,934.01
2017-11-25T07:08:33.928Z,934.02
2017-11-25T07:09:46.621Z,934.05
2017-11-25T07:10:59.375Z,934.03
2017-11-25T07:12:12.070Z,934.04
2017-11-25T07:13:24.744Z,934.07
2017-11-25T07:14:37.020Z,934.04
2017-11-25T07:15:49.650Z,934.1
2017-11-25T07:17:02.334Z,934.04
2017-11-25T07:18:14.655Z,934.08
2017-11-25T07:19:27.307Z,934.06
2017-11-25T07:20:39.942Z,934.07
2017-11-25T07:21:52.652Z,934.03
2017-11-25T07:23:04.888Z,934.02
2017-11-25T07:24:17.537Z,934.04
2017-11-25T07:25:30.155Z,934.07
2017-11-25T07:26:42.816Z,934.03
2017-11-25T07:27:55.478Z,934.04
2017-11-25T07:29:08.139Z,934
2017-11-25T07:30:20.831Z,934.01
2017-11-25T07:31:33.085Z,934
2017-11-25T07:32:45.758Z,933.98
2017-11-25T07:33:58.413Z,934.01
2017-11-25T07:35:11.037Z,933.99
2017-11-25T07:36:23.690Z,934.01
2017-11-25T07:37:35.883Z,934
2017-11-25T07:38:48.523Z,933.98
2017-11-25T07:40:01.203Z,933.99
2017-11-25T07:41:13.906Z,933.97
2017-11-25T07:42:26.582Z,933.98
2017-11-25T07:43:38.801Z,933.96
2017-11-25T07:44:51.449Z,933.98
2017-11-25T07:46:04.044Z,934.02
2017-11-25T07:47:16.284Z,934.06
2017-11-25T07:48:28.960Z,934.12
2017-11-25T07:49:41.660Z,934.06
2017-11-25T07:50:57.445Z,934.11
2017-11-25T07:52:10.067Z,934.1
2017-11-25T07:53:22.616Z,934.15
2017-11-25T07:54:34.723Z,934.16
2017-11-25T07:55:47.511Z,934.17
2017-11-25T07:57:00.260Z,934.16
2017-11-25T07:58:13.004Z,934.15
2017-11-25T07:59:25.774Z,934.13
2017-11-25T08:00:38.516Z,934.13
2017-11-25T08:01:50.806Z,934.11
2017-11-25T08:03:03.093Z,934.1
2017-11-25T08:04:15.833Z,934.14
2017-11-25T08:05:28.128Z,934.12
2017-11-25T08:06:40.543Z,934.12
2017-11-25T08:07:53.279Z,934.11
2017-11-25T08:09:05.575Z,934.09
2017-11-25T08:10:18.337Z,934.05
2017-11-25T08:11:31.076Z,934.09
2017-11-25T08:12:43.913Z,934.08
2017-11-25T08:13:56.660Z,934.11
2017-11-25T08:15:08.949Z,934.1
2017-11-25T08:16:21.241Z,934.2
2017-11-25T08:17:34.085Z,934.25
2017-11-25T08:18:46.397Z,934.27
2017-11-25T08:19:59.150Z,934.28
2017-11-25T08:21:11.891Z,934.23
2017-11-25T08:22:24.184Z,934.14
2017-11-25T08:23:36.470Z,934.15
2017-11-25T08:24:49.250Z,934.22
2017-11-25T08:26:01.507Z,934.2
2017-11-25T08:27:14.256Z,934.28
2017-11-25T08:28:27.003Z,934.27
2017-11-25T08:29:39.809Z,934.32
2017-11-25T08:30:52.105Z,934.24
2017-11-25T08:32:04.859Z,934.2
2017-11-25T08:33:16.694Z,934.2
2017-11-25T08:34:28.981Z,934.17
2017-11-25T08:35:41.266Z,934.23
2017-11-25T08:36:53.554Z,934.26
2017-11-25T08:38:06.299Z,934.32
2017-11-25T08:39:19.034Z,934.41
2017-11-25T08:40:31.326Z,934.38
2017-11-25T08:41:43.613Z,934.38
2017-11-25T08:42:55.903Z,934.4
2017-11-25T08:44:08.646Z,934.35
2017-11-25T08:45:20.931Z,934.35
2017-11-25T08:46:33.672Z,934.32
2017-11-25T08:47:46.415Z,934.35
2017-11-25T08:48:59.154Z,934.42
2017-11-25T08:50:11.556Z,934.43
2017-11-25T08:51:23.401Z,934.47
2017-11-25T08:52:35.692Z,934.48
2017-11-25T08:53:48.435Z,934.46
2017-11-25T08:55:01.189Z,934.44
2017-11-25T08:56:13.928Z,934.48
2017-11-25T08:57:26.673Z,934.49
2017-11-25T08:58:39.419Z,934.47
2017-11-25T08:59:51.711Z,934.48
2017-11-25T09:01:04.130Z,934.47
2017-11-25T09:02:16.888Z,934.47
2017-11-25T09:03:29.623Z,934.47
2017-11-25T09:04:42.381Z,934.47
2017-11-25T09:05:54.666Z,934.5
2017-11-25T09:07:07.427Z,934.5
2017-11-25T09:08:20.166Z,934.55
2017-11-25T09:09:32.904Z,934.56
2017-11-25T09:10:45.189Z,934.56
2017-11-25T09:11:57.947Z,934.55
2017-11-25T09:13:10.699Z,934.63
2017-11-25T09:14:23.446Z,934.62
2017-11-25T09:15:35.744Z,934.67
2017-11-25T09:16:48.486Z,934.69
2017-11-25T09:18:00.790Z,934.7
2017-11-25T09:19:13.542Z,934.67
2017-11-25T09:20:25.835Z,934.68
2017-11-25T09:21:38.587Z,934.64
2017-11-25T09:22:51.350Z,934.69
2017-11-25T09:24:04.116Z,934.66
2017-11-25T09:25:16.424Z,934.64
2017-11-25T09:26:29.183Z,934.64
2017-11-25T09:27:41.956Z,934.65
2017-11-25T09:28:54.716Z,934.63
2017-11-25T09:30:07.527Z,934.65
2017-11-25T09:31:20.286Z,934.62
2017-11-25T09:32:32.590Z,934.63
2017-11-25T09:33:45.372Z,934.62
2017-11-25T09:34:57.675Z,934.64
2017-11-25T09:36:10.430Z,934.67
2017-11-25T09:37:22.756Z,934.67
2017-11-25T09:38:35.512Z,934.71
2017-11-25T09:39:48.277Z,934.74
2017-11-25T09:41:01.033Z,934.72
2017-11-25T09:42:13.795Z,934.76
2017-11-25T09:43:26.121Z,934.75
2017-11-25T09:44:38.889Z,934.79
2017-11-25T09:45:51.659Z,934.76
2017-11-25T09:47:04.433Z,934.77
2017-11-25T09:48:17.196Z,934.77
2017-11-25T09:49:29.956Z,934.78
2017-11-25T09:50:42.721Z,934.81
2017-11-25T09:51:55.014Z,934.81
2017-11-25T09:53:07.785Z,934.8
2017-11-25T09:54:20.579Z,934.77
2017-11-25T09:55:33.439Z,934.81
2017-11-25T09:56:46.204Z,934.75
2017-11-25T09:57:58.517Z,934.75
2017-11-25T09:59:11.275Z,934.75
2017-11-25T10:00:24.031Z,934.8
2017-11-25T10:01:36.333Z,934.79
2017-11-25T10:02:49.086Z,934.81
2017-11-25T10:04:01.389Z,934.81
2017-11-25T10:05:14.130Z,934.8
2017-11-25T10:06:26.437Z,934.81
2017-11-25T10:07:39.193Z,934.8
2017-11-25T10:08:51.493Z,934.76
2017-11-25T10:10:04.236Z,934.76
2017-11-25T10:11:16.988Z,934.77
2017-11-25T10:12:29.280Z,934.76
2017-11-25T10:13:41.573Z,934.8
2017-11-25T10:14:53.421Z,934.77
2017-11-25T10:16:06.178Z,934.82
2017-11-25T10:17:18.930Z,934.83
2017-11-25T10:18:31.685Z,934.78
2017-11-25T10:19:44.020Z,934.86
2017-11-25T10:20:56.775Z,934.77
2017-11-25T10:22:09.527Z,934.87
2017-11-25T10:23:22.281Z,934.85
2017-11-25T10:24:35.039Z,934.86
2017-11-25T10:25:47.808Z,934.84
2017-11-25T10:27:00.572Z,934.82
2017-11-25T10:28:13.352Z,934.82
2017-11-25T10:29:26.102Z,934.74
2017-11-25T10:30:38.397Z,934.76
2017-11-25T10:31:50.704Z,934.78
2017-11-25T10:33:03.005Z,934.79
2017-11-25T10:34:15.756Z,934.76
2017-11-25T10:35:28.518Z,934.78
2017-11-25T10:36:41.275Z,934.76
2017-11-25T10:37:53.571Z,934.74
2017-11-25T10:39:05.876Z,934.72
2017-11-25T10:40:18.180Z,934.73
2017-11-25T10:41:30.927Z,934.67
2017-11-25T10:42:43.674Z,934.67
2017-11-25T10:43:56.422Z,934.67
2017-11-25T10:45:09.201Z,934.68
2017-11-25T10:46:21.967Z,934.66
2017-11-25T10:47:34.718Z,934.66
2017-11-25T10:48:47.462Z,934.65
2017-11-25T10:50:00.215Z,934.66
2017-11-25T10:51:12.983Z,934.62
2017-11-25T10:52:24.838Z,934.67
2017-11-25T10:53:37.145Z,934.65
2017-11-25T10:54:49.904Z,934.66
2017-11-25T10:56:02.212Z,934.67
2017-11-25T10:57:15.007Z,934.66
2017-11-25T10:58:27.760Z,934.63
2017-11-25T10:59:40.062Z,934.62
2017-11-25T11:00:52.363Z,934.61
2017-11-25T11:02:04.690Z,934.61
2017-11-25T11:03:16.984Z,934.57
2017-11-25T11:04:28.851Z,934.57
2017-11-25T11:05:41.617Z,934.57
2017-11-25T11:06:54.472Z,934.59
2017-11-25T11:08:07.230Z,934.6
2017-11-25T11:09:19.998Z,934.54
2017-11-25T11:10:32.768Z,934.54
2017-11-25T11:11:45.521Z,934.51
2017-11-25T11:12:58.292Z,934.46
2017-11-25T11:14:11.051Z,934.45
2017-11-25T11:15:23.350Z,934.47
2017-11-25T11:16:36.096Z,934.53
2017-11-25T11:17:48.849Z,934.57
2017-11-25T11:19:01.641Z,934.6
2017-11-25T11:20:14.397Z,934.59
2017-11-25T11:21:27.150Z,934.65
2017-11-25T11:22:39.446Z,934.68
2017-11-25T11:23:52.189Z,934.67
2017-11-25T11:25:04.953Z,934.6
2017-11-25T11:26:17.721Z,934.65
2017-11-25T11:27:30.027Z,934.65
2017-11-25T11:28:42.790Z,934.55
2017-11-25T11:29:55.558Z,934.51
2017-11-25T11:31:07.419Z,934.47
2017-11-25T11:32:19.725Z,934.43
2017-11-25T11:33:31.579Z,934.43
2017-11-25T11:34:44.342Z,934.38
2017-11-25T11:35:57.110Z,934.41
2017-11-25T11:37:09.871Z,934.43
2017-11-25T11:38:22.638Z,934.42
2017-11-25T11:39:35.401Z,934.41
2017-11-25T11:40:48.155Z,934.43
2017-11-25T11:42:00.452Z,934.45
2017-11-25T11:43:12.765Z,934.5
2017-11-25T11:44:25.515Z,934.47
2017-11-25T11:45:37.362Z,934.4
2017-11-25T11:46:50.171Z,934.48
2017-11-25T11:48:02.933Z,934.48
2017-11-25T11:49:15.696Z,934.49
2017-11-25T11:50:28.461Z,934.5
2017-11-25T11:51:41.225Z,934.46
2017-11-25T11:52:53.978Z,934.48
2017-11-25T11:54:06.724Z,934.45
2017-11-25T11:55:19.026Z,934.38
2017-11-25T11:56:31.331Z,934.34
2017-11-25T11:57:44.090Z,934.32
2017-11-25T11:58:56.852Z,934.28
2017-11-25T12:00:09.611Z,934.25
2017-11-25T12:01:21.923Z,934.29
2017-11-25T12:02:33.779Z,934.27
2017-11-25T12:03:46.084Z,934.28
2017-11-25T12:04:58.841Z,934.32
2017-11-25T12:06:11.609Z,934.32
2017-11-25T12:07:24.364Z,934.29
2017-11-25T12:08:37.118Z,934.23
2017-11-25T12:09:49.886Z,934.27
2017-11-25T12:11:02.665Z,934.27
2017-11-25T12:12:15.418Z,934.23
2017-11-25T12:13:28.172Z,934.22
2017-11-25T12:14:40.477Z,934.26
2017-11-25T12:15:53.233Z,934.28
2017-11-25T12:17:05.985Z,934.3
2017-11-25T12:18:18.744Z,934.28
2017-11-25T12:19:31.498Z,934.21
2017-11-25T12:20:44.259Z,934.21
2017-11-25T12:21:57.018Z,934.13
2017-11-25T12:23:09.805Z,934.13
2017-11-25T12:24:22.560Z,934.14
2017-11-25T12:25:35.319Z,934.13
2017-11-25T12:26:48.092Z,934.12
2017-11-25T12:27:59.971Z,934.14
2017-11-25T12:29:12.291Z,934.12
2017-11-25T12:30:25.052Z,934.11
2017-11-25T12:31:37.813Z,934.1
2017-11-25T12:32:50.120Z,934.05
2017-11-25T12:34:02.435Z,934.03
2017-11-25T12:35:15.201Z,933.98
2017-11-25T12:36:27.508Z,933.96
2017-11-25T12:37:40.275Z,933.97
2017-11-25T12:38:53.076Z,933.9
2017-11-25T12:40:05.825Z,933.88
2017-11-25T12:41:18.127Z,933.89
2017-11-25T12:42:30.883Z,933.87
2017-11-25T12:43:43.632Z,933.9
2017-11-25T12:44:56.379Z,933.88
2017-11-25T12:46:09.153Z,933.92
2017-11-25T12:47:21.909Z,933.91
2017-11-25T12:48:34.675Z,933.88
2017-11-25T12:49:47.446Z,933.86
2017-11-25T12:51:00.231Z,933.81
2017-11-25T12:52:12.995Z,933.8
2017-11-25T12:53:25.775Z,933.74
2017-11-25T12:54:38.540Z,933.74
2017-11-25T12:55:51.303Z,933.73
2017-11-25T12:57:04.072Z,933.71
2017-11-25T12:58:16.416Z,933.68
2017-11-25T12:59:28.725Z,933.65
2017-11-25T13:00:41.037Z,933.52
2017-11-25T13:01:53.797Z,933.56
2017-11-25T13:03:06.561Z,933.63
2017-11-25T13:04:19.322Z,933.57
2017-11-25T13:05:32.076Z,933.59
2017-11-25T13:06:44.849Z,933.57
2017-11-25T13:07:57.157Z,933.59
2017-11-25T13:09:09.909Z,933.54
2017-11-25T13:10:22.666Z,933.47
2017-11-25T13:11:34.979Z,933.43
2017-11-25T13:12:47.314Z,933.49
2017-11-25T13:14:00.100Z,933.46
2017-11-25T13:15:12.885Z,933.45
2017-11-25T13:16:25.652Z,933.48
2017-11-25T13:17:38.430Z,933.5
2017-11-25T13:18:50.768Z,933.44
2017-11-25T13:20:03.551Z,933.43
2017-11-25T13:21:16.344Z,933.45
2017-11-25T13:22:29.110Z,933.41
2017-11-25T13:23:41.882Z,933.42
2017-11-25T13:24:54.640Z,933.4
2017-11-25T13:26:07.406Z,933.41
2017-11-25T13:27:20.170Z,933.4
2017-11-25T13:28:32.491Z,933.43
2017-11-25T13:29:45.268Z,933.43
2017-11-25T13:30:58.048Z,933.36
2017-11-25T13:32:10.827Z,933.38
2017-11-25T13:33:23.595Z,933.36
2017-11-25T13:34:36.378Z,933.38
2017-11-25T13:35:48.695Z,933.34
2017-11-25T13:37:01.465Z,933.35
2017-11-25T13:38:13.779Z,933.31
2017-11-25T13:39:26.551Z,933.33
2017-11-25T13:40:38.884Z,933.25
2017-11-25T13:41:51.655Z,933.22
2017-11-25T13:43:03.980Z,933.22
2017-11-25T13:44:16.773Z,933.17
2017-11-25T13:45:29.553Z,933.21
2017-11-25T13:46:42.332Z,933.17
2017-11-25T13:47:55.107Z,933.22
2017-11-25T13:49:07.420Z,933.14
2017-11-25T13:50:20.205Z,933.15
2017-11-25T13:51:32.996Z,933.16
2017-11-25T13:52:45.766Z,933.12
2017-11-25T13:53:58.531Z,933.11
2017-11-25T13:55:10.873Z,933.09
2017-11-25T13:56:23.712Z,933.1
2017-11-25T13:57:36.558Z,933.11
2017-11-25T13:58:49.393Z,933.07
2017-11-25T14:00:02.294Z,933.04
2017-11-25T14:01:15.125Z,933.06
2017-11-25T14:02:27.490Z,933.04
2017-11-25T14:03:39.857Z,932.98
2017-11-25T14:04:52.678Z,932.96
2017-11-25T14:06:05.033Z,932.9
2017-11-25T14:07:17.858Z,932.91
2017-11-25T14:08:30.695Z,932.91
2017-11-25T14:09:43.529Z,932.89
2017-11-25T14:10:56.086Z,932.86
2017-11-25T14:12:08.911Z,932.86
2017-11-25T14:13:21.746Z,932.81
2017-11-25T14:14:34.112Z,932.77
2017-11-25T14:15:46.946Z,932.75
2017-11-25T14:16:58.863Z,932.69
2017-11-25T14:18:11.266Z,932.69
2017-11-25T14:19:24.061Z,932.72
2017-11-25T14:20:36.418Z,932.69
2017-11-25T14:21:48.291Z,932.67
2017-11-25T14:23:01.097Z,932.62
2017-11-25T14:24:13.419Z,932.62
2017-11-25T14:25:26.169Z,932.64
2017-11-25T14:26:38.933Z,932.62
2017-11-25T14:27:51.704Z,932.62
2017-11-25T14:29:04.428Z,932.6
2017-11-25T14:30:17.189Z,932.59
2017-11-25T14:31:29.931Z,932.58
2017-11-25T14:32:42.688Z,932.5
2017-11-25T14:33:55.459Z,932.58
2017-11-25T14:35:07.728Z,932.59
2017-11-25T14:36:20.484Z,932.6
2017-11-25T14:37:33.244Z,932.58
2017-11-25T14:38:45.989Z,932.59
2017-11-25T14:39:58.788Z,932.53
2017-11-25T14:41:11.563Z,932.58
2017-11-25T14:42:24.259Z,932.6
2017-11-25T14:43:37.001Z,932.62
2017-11-25T14:44:49.313Z,932.6
2017-11-25T14:46:02.048Z,932.67
2017-11-25T14:47:14.335Z,932.64
2017-11-25T14:48:27.072Z,932.67
2017-11-25T14:49:39.885Z,932.67
2017-11-25T14:50:52.637Z,932.67
2017-11-25T14:52:04.973Z,932.66
2017-11-25T14:53:17.305Z,932.7
2017-11-25T14:54:29.799Z,932.62
2017-11-25T14:55:42.567Z,932.67
2017-11-25T14:56:55.321Z,932.62
2017-11-25T14:58:08.119Z,932.58
2017-11-25T14:59:20.931Z,932.59
2017-11-25T15:00:33.699Z,932.6
2017-11-25T15:01:46.456Z,932.63
2017-11-25T15:02:59.265Z,932.61
2017-11-25T15:04:11.963Z,932.63
2017-11-25T15:05:24.292Z,932.6
2017-11-25T15:06:37.042Z,932.67
2017-11-25T15:07:49.795Z,932.66
2017-11-25T15:09:02.515Z,932.72
2017-11-25T15:10:15.270Z,932.66